sensor_id;sensor_type;location;lat;lon;timestamp;P1;P2;P0
62981;PMS5003;49075;53.988;27.678;2022-11-24T00:04:57;45;40.4;28.6
62981;PMS5003;49075;53.988;27.678;2022-11-24T00:09:32;44;40;27.5
62981;PMS5003;49075;53.988;27.678;2022-11-24T00:14:39;45.5;43;28
62981;PMS5003;49075;53.988;27.678;2022-11-24T00:19:21;40;37.8;27
62981;PMS5003;49075;53.988;27.678;2022-11-24T00:24:53;37.2;36.4;27.4
62981;PMS5003;49075;53.988;27.678;2022-11-24T00:29:19;40.5;38;25.5
62981;PMS5003;49075;53.988;27.678;2022-11-24T00:54:21;40.5;38;25.5
62981;PMS5003;49075;53.988;27.678;2022-11-24T00:59:53;51;45.3;31
62981;PMS5003;49075;53.988;27.678;2022-11-24T01:04:31;42.6;39.4;27.8
62981;PMS5003;49075;53.988;27.678;2022-11-24T01:09:51;41;39.8;26.4
62981;PMS5003;49075;53.988;27.678;2022-11-24T01:14:13;44;40.4;27.8
62981;PMS5003;49075;53.988;27.678;2022-11-24T01:19:19;45.8;42.6;28.2
62981;PMS5003;49075;53.988;27.678;2022-11-24T01:24:19;41;38.8;26.2
62981;PMS5003;49075;53.988;27.678;2022-11-24T01:29:43;41.7;38.7;27
62981;PMS5003;49075;53.988;27.678;2022-11-24T01:34:25;48.3;42.3;29
62981;PMS5003;49075;53.988;27.678;2022-11-24T01:39:55;37.6;36.8;24.6
62981;PMS5003;49075;53.988;27.678;2022-11-24T01:44:23;40.6;38.6;27.2
62981;PMS5003;49075;53.988;27.678;2022-11-24T01:49:53;43.8;39.8;27.8
62981;PMS5003;49075;53.988;27.678;2022-11-24T01:54:45;42.4;39.6;27.6
62981;PMS5003;49075;53.988;27.678;2022-11-24T01:59:33;39.6;36.2;25.6
62981;PMS5003;49075;53.988;27.678;2022-11-24T02:04:25;47.4;44;28.6
62981;PMS5003;49075;53.988;27.678;2022-11-24T02:09:15;42;39;27
62981;PMS5003;49075;53.988;27.678;2022-11-24T02:14:45;46;42.5;30
62981;PMS5003;49075;53.988;27.678;2022-11-24T02:19:36;49;45;29
62981;PMS5003;49075;53.988;27.678;2022-11-24T02:24:55;38.2;36.2;25.4
62981;PMS5003;49075;53.988;27.678;2022-11-24T02:29:25;37.8;37;25.4
62981;PMS5003;49075;53.988;27.678;2022-11-24T02:34:58;43;41.4;27.8
62981;PMS5003;49075;53.988;27.678;2022-11-24T02:39:35;39.8;38.2;28
62981;PMS5003;49075;53.988;27.678;2022-11-24T02:44:42;40.2;37.4;26.8
62981;PMS5003;49075;53.988;27.678;2022-11-24T02:49:55;40.2;37.4;26.8
62981;PMS5003;49075;53.988;27.678;2022-11-24T03:04:55;40.2;37.4;26.8
62981;PMS5003;49075;53.988;27.678;2022-11-24T03:09:45;40.7;37.3;26.7
62981;PMS5003;49075;53.988;27.678;2022-11-24T03:14:29;39.3;38;27.5
62981;PMS5003;49075;53.988;27.678;2022-11-24T03:19:33;39.3;38;27.5
62981;PMS5003;49075;53.988;27.678;2022-11-24T03:24:13;40;36;25.3
62981;PMS5003;49075;53.988;27.678;2022-11-24T03:29:53;47.7;42.7;28
62981;PMS5003;49075;53.988;27.678;2022-11-24T03:34:33;56;48;32
62981;PMS5003;49075;53.988;27.678;2022-11-24T03:39:55;56;48;32
62981;PMS5003;49075;53.988;27.678;2022-11-24T03:44:55;50;45;30
62981;PMS5003;49075;53.988;27.678;2022-11-24T03:49:55;47;42;27.5
62981;PMS5003;49075;53.988;27.678;2022-11-24T03:54:23;49.2;43.4;29
62981;PMS5003;49075;53.988;27.678;2022-11-24T03:59:53;41;38.2;26.6
62981;PMS5003;49075;53.988;27.678;2022-11-24T04:04:41;42.8;40;28.6
62981;PMS5003;49075;53.988;27.678;2022-11-24T04:09:43;44.4;41.4;28.4
62981;PMS5003;49075;53.988;27.678;2022-11-24T04:14:39;42;40.2;27.2
62981;PMS5003;49075;53.988;27.678;2022-11-24T04:19:55;40.5;39;26.3
62981;PMS5003;49075;53.988;27.678;2022-11-24T04:24:55;42.4;39.4;27.2
62981;PMS5003;49075;53.988;27.678;2022-11-24T04:29:13;38.8;35;23.2
62981;PMS5003;49075;53.988;27.678;2022-11-24T04:34:43;46.2;43.2;29.4
62981;PMS5003;49075;53.988;27.678;2022-11-24T04:39:13;38.8;36.2;25.8
62981;PMS5003;49075;53.988;27.678;2022-11-24T04:44:55;40.2;38.4;27.2
62981;PMS5003;49075;53.988;27.678;2022-11-24T04:49:33;49.8;46;31
62981;PMS5003;49075;53.988;27.678;2022-11-24T04:54:37;46.6;43.4;29.6
62981;PMS5003;49075;53.988;27.678;2022-11-24T04:59:53;43.4;38.8;26.2
62981;PMS5003;49075;53.988;27.678;2022-11-24T05:04:25;50;45;30.8
62981;PMS5003;49075;53.988;27.678;2022-11-24T05:09:23;49.2;45.2;30.6
62981;PMS5003;49075;53.988;27.678;2022-11-24T05:14:43;50.3;45.7;29.3
62981;PMS5003;49075;53.988;27.678;2022-11-24T05:19:45;50.3;45.7;29.3
62981;PMS5003;49075;53.988;27.678;2022-11-24T05:24:43;48;42;29.5
62981;PMS5003;49075;53.988;27.678;2022-11-24T05:39:57;48.7;43.3;28.7
62981;PMS5003;49075;53.988;27.678;2022-11-24T05:44:31;47;43;28
62981;PMS5003;49075;53.988;27.678;2022-11-24T05:49:43;54.3;46;31
62981;PMS5003;49075;53.988;27.678;2022-11-24T05:54:43;49.7;43.3;30
62981;PMS5003;49075;53.988;27.678;2022-11-24T05:59:57;48.6;43.6;29.8
62981;PMS5003;49075;53.988;27.678;2022-11-24T06:04:27;51.5;46.3;31.8
62981;PMS5003;49075;53.988;27.678;2022-11-24T06:09:47;45.2;42;28.4
62981;PMS5003;49075;53.988;27.678;2022-11-24T06:14:35;49.6;45.4;29.8
62981;PMS5003;49075;53.988;27.678;2022-11-24T06:19:59;44.8;42;29.8
62981;PMS5003;49075;53.988;27.678;2022-11-24T06:24:35;55.8;47.6;30.8
62981;PMS5003;49075;53.988;27.678;2022-11-24T06:29:37;51.4;46.2;31.6
62981;PMS5003;49075;53.988;27.678;2022-11-24T06:34:43;52;45;30
62981;PMS5003;49075;53.988;27.678;2022-11-24T06:39:45;52;45;30
62981;PMS5003;49075;53.988;27.678;2022-11-24T06:44:35;48.3;44;29.5
62981;PMS5003;49075;53.988;27.678;2022-11-24T06:49:55;48.3;44;29.5
62981;PMS5003;49075;53.988;27.678;2022-11-24T06:54:55;53;47;32
62981;PMS5003;49075;53.988;27.678;2022-11-24T06:59:25;48.5;43.5;28.8
62981;PMS5003;49075;53.988;27.678;2022-11-24T07:04:35;45;42.2;27.2
62981;PMS5003;49075;53.988;27.678;2022-11-24T07:09:25;42.4;40;27.8
62981;PMS5003;49075;53.988;27.678;2022-11-24T07:14:55;53.4;45.8;30.2
62981;PMS5003;49075;53.988;27.678;2022-11-24T07:19:35;51.2;45.6;30
62981;PMS5003;49075;53.988;27.678;2022-11-24T07:24:45;42.6;40.4;27.6
62981;PMS5003;49075;53.988;27.678;2022-11-24T07:29:25;47.8;43;28.6
62981;PMS5003;49075;53.988;27.678;2022-11-24T07:34:25;52;46.4;32.2
62981;PMS5003;49075;53.988;27.678;2022-11-24T07:39:23;51.2;44.2;28.8
62981;PMS5003;49075;53.988;27.678;2022-11-24T07:44:57;50;44.6;30.2
62981;PMS5003;49075;53.988;27.678;2022-11-24T07:49:45;48;43.2;28.2
62981;PMS5003;49075;53.988;27.678;2022-11-24T07:54:55;51.6;45.2;31
62981;PMS5003;49075;53.988;27.678;2022-11-24T07:59:13;48.5;44;30
62981;PMS5003;49075;53.988;27.678;2022-11-24T08:04:45;60;50.5;32.5
62981;PMS5003;49075;53.988;27.678;2022-11-24T08:09:53;51;45;31
62981;PMS5003;49075;53.988;27.678;2022-11-24T08:14:23;58.7;49;31.7
62981;PMS5003;49075;53.988;27.678;2022-11-24T08:19:41;48;41.7;29
62981;PMS5003;49075;53.988;27.678;2022-11-24T08:24:25;66;54;38
62981;PMS5003;49075;53.988;27.678;2022-11-24T08:29:53;50;43.5;27.5
62981;PMS5003;49075;53.988;27.678;2022-11-24T08:34:33;54.3;47.8;31
62981;PMS5003;49075;53.988;27.678;2022-11-24T08:39:25;57;50;32.8
62981;PMS5003;49075;53.988;27.678;2022-11-24T08:44:45;49.8;44.6;31
62981;PMS5003;49075;53.988;27.678;2022-11-24T08:49:43;52.8;46;30.6
62981;PMS5003;49075;53.988;27.678;2022-11-24T08:54:43;52.6;46.8;31.8
62981;PMS5003;49075;53.988;27.678;2022-11-24T08:59:45;57.3;49;32.3
62981;PMS5003;49075;53.988;27.678;2022-11-24T09:04:57;57;49.4;32.2
62981;PMS5003;49075;53.988;27.678;2022-11-24T09:09:55;56;47.4;31.8
62981;PMS5003;49075;53.988;27.678;2022-11-24T09:14:25;57.4;49.8;32.6
62981;PMS5003;49075;53.988;27.678;2022-11-24T09:19:45;49.8;45;30.2
62981;PMS5003;49075;53.988;27.678;2022-11-24T09:24:45;61.8;50.8;33.4
62981;PMS5003;49075;53.988;27.678;2022-11-24T09:29:43;54.6;48.2;30.8
62981;PMS5003;49075;53.988;27.678;2022-11-24T09:34:23;61.3;51.8;34
62981;PMS5003;49075;53.988;27.678;2022-11-24T09:39:25;57;49.2;32.8
62981;PMS5003;49075;53.988;27.678;2022-11-24T09:45:06;56.4;48.6;32.2
62981;PMS5003;49075;53.988;27.678;2022-11-24T09:49:54;60.8;51.6;33.8
62981;PMS5003;49075;53.988;27.678;2022-11-24T09:54:23;55.4;47.4;31.6
62981;PMS5003;49075;53.988;27.678;2022-11-24T09:59:58;57;49.2;31.6
62981;PMS5003;49075;53.988;27.678;2022-11-24T10:04:27;58.6;50;33.6
62981;PMS5003;49075;53.988;27.678;2022-11-24T10:09:44;62.2;52.2;34.2
62981;PMS5003;49075;53.988;27.678;2022-11-24T10:15:18;55.4;48.6;31.6
62981;PMS5003;49075;53.988;27.678;2022-11-24T10:19:55;61.2;51.6;33.6
62981;PMS5003;49075;53.988;27.678;2022-11-24T10:25:02;64.4;54.6;35.4
62981;PMS5003;49075;53.988;27.678;2022-11-24T10:29:27;65.4;54.8;36
62981;PMS5003;49075;53.988;27.678;2022-11-24T10:34:45;67;55.8;36.3
62981;PMS5003;49075;53.988;27.678;2022-11-24T10:39:34;61.8;52.2;34.6
62981;PMS5003;49075;53.988;27.678;2022-11-24T10:44:43;72.2;59.6;38.6
62981;PMS5003;49075;53.988;27.678;2022-11-24T10:49:31;63.2;53.6;35.6
62981;PMS5003;49075;53.988;27.678;2022-11-24T10:54:56;62.8;53;34.2
62981;PMS5003;49075;53.988;27.678;2022-11-24T10:59:31;60.2;51.6;33.6
62981;PMS5003;49075;53.988;27.678;2022-11-24T11:04:45;66.2;56;36.8
62981;PMS5003;49075;53.988;27.678;2022-11-24T11:09:35;66.8;54;36.4
62981;PMS5003;49075;53.988;27.678;2022-11-24T11:14:51;65.2;55;37.2
62981;PMS5003;49075;53.988;27.678;2022-11-24T11:19:55;63.3;53.3;35
62981;PMS5003;49075;53.988;27.678;2022-11-24T11:24:25;67.2;56;36.2
62981;PMS5003;49075;53.988;27.678;2022-11-24T11:29:43;64;54;35.6
62981;PMS5003;49075;53.988;27.678;2022-11-24T11:34:53;58.6;50.2;33.6
62981;PMS5003;49075;53.988;27.678;2022-11-24T11:39:53;64.6;53.6;35.6
62981;PMS5003;49075;53.988;27.678;2022-11-24T11:44:15;65;54.2;34
62981;PMS5003;49075;53.988;27.678;2022-11-24T11:49:41;55;48;31.6
62981;PMS5003;49075;53.988;27.678;2022-11-24T11:54:36;60.5;51.5;34.3
62981;PMS5003;49075;53.988;27.678;2022-11-24T11:59:49;51;46;30
62981;PMS5003;49075;53.988;27.678;2022-11-24T12:04:37;61.2;52.8;34.8
62981;PMS5003;49075;53.988;27.678;2022-11-24T12:09:26;59;50.6;32
62981;PMS5003;49075;53.988;27.678;2022-11-24T12:14:25;60.2;51;33.8
62981;PMS5003;49075;53.988;27.678;2022-11-24T12:19:58;63.8;52.2;35.2
62981;PMS5003;49075;53.988;27.678;2022-11-24T12:24:28;60;50.2;33.2
62981;PMS5003;49075;53.988;27.678;2022-11-24T12:30:02;63.6;54.2;36
62981;PMS5003;49075;53.988;27.678;2022-11-24T12:34:28;61.2;51.8;34.8
62981;PMS5003;49075;53.988;27.678;2022-11-24T12:39:47;57.4;50.4;32.2
62981;PMS5003;49075;53.988;27.678;2022-11-24T12:44:53;60.6;51.4;34.8
62981;PMS5003;49075;53.988;27.678;2022-11-24T12:50:00;51.6;46.2;31.4
62981;PMS5003;49075;53.988;27.678;2022-11-24T12:54:57;49.3;44.5;30.3
62981;PMS5003;49075;53.988;27.678;2022-11-24T12:59:26;52.6;47.4;32.2
62981;PMS5003;49075;53.988;27.678;2022-11-24T13:04:57;58.6;49;32.8
62981;PMS5003;49075;53.988;27.678;2022-11-24T13:09:33;45.4;42;28.6
62981;PMS5003;49075;53.988;27.678;2022-11-24T13:14:45;47.8;43.8;30
62981;PMS5003;49075;53.988;27.678;2022-11-24T13:19:32;48;44;30
62981;PMS5003;49075;53.988;27.678;2022-11-24T13:24:33;49.4;45;29.8
62981;PMS5003;49075;53.988;27.678;2022-11-24T13:29:34;49.2;45.2;30.8
62981;PMS5003;49075;53.988;27.678;2022-11-24T13:35:01;42.4;40.6;28
62981;PMS5003;49075;53.988;27.678;2022-11-24T13:39:46;49.2;44.8;31.8
62981;PMS5003;49075;53.988;27.678;2022-11-24T13:44:55;44;42.2;28.4
62981;PMS5003;49075;53.988;27.678;2022-11-24T13:49:57;43;40.8;28
62981;PMS5003;49075;53.988;27.678;2022-11-24T13:54:45;42.8;40.3;29
62981;PMS5003;49075;53.988;27.678;2022-11-24T13:59:59;48.6;44;30.6
62981;PMS5003;49075;53.988;27.678;2022-11-24T14:04:47;46;42.4;28.6
62981;PMS5003;49075;53.988;27.678;2022-11-24T14:09:57;44.4;41.8;28.2
62981;PMS5003;49075;53.988;27.678;2022-11-24T14:14:25;45.8;43.2;30.4
62981;PMS5003;49075;53.988;27.678;2022-11-24T14:19:57;45.8;43;30.8
62981;PMS5003;49075;53.988;27.678;2022-11-24T14:24:43;46.4;42.6;30
62981;PMS5003;49075;53.988;27.678;2022-11-24T14:29:53;45.6;43;29.6
62981;PMS5003;49075;53.988;27.678;2022-11-24T14:34:21;37.6;36.4;27.4
62981;PMS5003;49075;53.988;27.678;2022-11-24T14:39:25;50.3;45.5;30.8
62981;PMS5003;49075;53.988;27.678;2022-11-24T14:44:22;42.2;39.6;28.6
62981;PMS5003;49075;53.988;27.678;2022-11-24T14:54:35;48.4;43.4;30.2
62981;PMS5003;49075;53.988;27.678;2022-11-24T15:00:06;46.2;43.6;30.6
62981;PMS5003;49075;53.988;27.678;2022-11-24T15:04:25;46.6;43.6;29.8
62981;PMS5003;49075;53.988;27.678;2022-11-24T15:09:48;48.8;43.8;30.2
62981;PMS5003;49075;53.988;27.678;2022-11-24T15:14:35;45.6;43.2;30.2
62981;PMS5003;49075;53.988;27.678;2022-11-24T15:19:46;50.6;45.2;31.4
62981;PMS5003;49075;53.988;27.678;2022-11-24T15:24:57;41.8;39.8;28.4
62981;PMS5003;49075;53.988;27.678;2022-11-24T15:29:11;53.2;46.8;32
62981;PMS5003;49075;53.988;27.678;2022-11-24T15:34:57;50.8;47;32.6
62981;PMS5003;49075;53.988;27.678;2022-11-24T15:39:45;49;45.6;32.2
62981;PMS5003;49075;53.988;27.678;2022-11-24T15:44:47;43.8;42;28.3
62981;PMS5003;49075;53.988;27.678;2022-11-24T15:49:33;45.8;42.6;27.8
62981;PMS5003;49075;53.988;27.678;2022-11-24T15:54:23;42.4;39.4;27
62981;PMS5003;49075;53.988;27.678;2022-11-24T15:59:25;45.6;42.6;29.2
62981;PMS5003;49075;53.988;27.678;2022-11-24T16:04:55;45.2;41.8;29.4
62981;PMS5003;49075;53.988;27.678;2022-11-24T16:09:31;44.8;41.2;30.2
62981;PMS5003;49075;53.988;27.678;2022-11-24T16:14:53;38;35.6;25.4
62981;PMS5003;49075;53.988;27.678;2022-11-24T16:19:23;46;43.2;30
62981;PMS5003;49075;53.988;27.678;2022-11-24T16:24:43;44.4;41.6;28.2
62981;PMS5003;49075;53.988;27.678;2022-11-24T16:29:33;41;39;27
62981;PMS5003;49075;53.988;27.678;2022-11-24T16:34:45;46;43;30
62981;PMS5003;49075;53.988;27.678;2022-11-24T16:39:55;46.6;44;30.2
62981;PMS5003;49075;53.988;27.678;2022-11-24T16:44:57;46;42.8;30.4
62981;PMS5003;49075;53.988;27.678;2022-11-24T16:49:57;43;42;28
62981;PMS5003;49075;53.988;27.678;2022-11-24T19:34:31;43;42;28
62981;PMS5003;49075;53.988;27.678;2022-11-24T19:39:43;39;37;25
62981;PMS5003;49075;53.988;27.678;2022-11-24T19:44:31;36;34.8;25
62981;PMS5003;49075;53.988;27.678;2022-11-24T19:49:55;32.5;31.5;23.8
62981;PMS5003;49075;53.988;27.678;2022-11-24T19:54:13;43;40;27.8
62981;PMS5003;49075;53.988;27.678;2022-11-24T19:59:57;36;33.4;24.2
62981;PMS5003;49075;53.988;27.678;2022-11-24T20:04:25;36;35.6;26.6
62981;PMS5003;49075;53.988;27.678;2022-11-24T20:09:47;39.6;36.6;25.2
62981;PMS5003;49075;53.988;27.678;2022-11-24T20:14:35;33.2;32.6;22
62981;PMS5003;49075;53.988;27.678;2022-11-24T20:19:39;35;34;24.8
62981;PMS5003;49075;53.988;27.678;2022-11-24T20:24:59;31.6;31.2;22.8
62981;PMS5003;49075;53.988;27.678;2022-11-24T20:29:31;34.8;33;23.2
62981;PMS5003;49075;53.988;27.678;2022-11-24T20:34:57;35.4;34;23.4
62981;PMS5003;49075;53.988;27.678;2022-11-24T20:39:37;30.4;29.6;22
62981;PMS5003;49075;53.988;27.678;2022-11-24T20:44:45;32;31.2;21.8
62981;PMS5003;49075;53.988;27.678;2022-11-24T20:49:31;34;33.3;24.3
62981;PMS5003;49075;53.988;27.678;2022-11-24T20:54:23;33;32;22.2
62981;PMS5003;49075;53.988;27.678;2022-11-24T20:59:23;33.2;31.2;23.8
62981;PMS5003;49075;53.988;27.678;2022-11-24T21:04:55;33.6;31.2;22.6
62981;PMS5003;49075;53.988;27.678;2022-11-24T21:09:35;35;33.8;22.8
62981;PMS5003;49075;53.988;27.678;2022-11-24T21:14:57;34.2;32.2;21.8
62981;PMS5003;49075;53.988;27.678;2022-11-24T21:19:35;31.6;31.6;23.8
62981;PMS5003;49075;53.988;27.678;2022-11-24T21:24:33;32.4;32.2;23.6
62981;PMS5003;49075;53.988;27.678;2022-11-24T21:29:33;37.6;35.2;25.8
62981;PMS5003;49075;53.988;27.678;2022-11-24T21:34:45;27;26.8;20.6
62981;PMS5003;49075;53.988;27.678;2022-11-24T21:39:45;28.2;27.4;20.8
62981;PMS5003;49075;53.988;27.678;2022-11-24T21:44:33;32.6;32;22
62981;PMS5003;49075;53.988;27.678;2022-11-24T21:49:25;29.4;29;21.8
62981;PMS5003;49075;53.988;27.678;2022-11-24T21:54:55;31.2;31.2;23.8
62981;PMS5003;49075;53.988;27.678;2022-11-24T21:59:43;34.5;33.3;24.8
62981;PMS5003;49075;53.988;27.678;2022-11-24T22:04:29;28.4;27.8;21.4
62981;PMS5003;49075;53.988;27.678;2022-11-24T22:09:21;31.2;30.6;23.4
62981;PMS5003;49075;53.988;27.678;2022-11-24T22:14:55;28.4;28;21
62981;PMS5003;49075;53.988;27.678;2022-11-24T22:19:51;27.4;27.2;21.2
62981;PMS5003;49075;53.988;27.678;2022-11-24T22:24:31;31;30.8;23.2
62981;PMS5003;49075;53.988;27.678;2022-11-24T22:29:51;32.4;31;23.8
62981;PMS5003;49075;53.988;27.678;2022-11-24T22:34:51;41.5;39.5;29
62981;PMS5003;49075;53.988;27.678;2022-11-24T22:39:51;31.6;30.2;22.6
62981;PMS5003;49075;53.988;27.678;2022-11-24T22:44:27;27;27;21
62981;PMS5003;49075;53.988;27.678;2022-11-24T22:49:41;27;27;21
62981;PMS5003;49075;53.988;27.678;2022-11-24T22:54:41;35.3;33.7;25.3
62981;PMS5003;49075;53.988;27.678;2022-11-24T22:59:19;34;32.3;23.7
62981;PMS5003;49075;53.988;27.678;2022-11-24T23:04:13;28.8;28.5;21
62981;PMS5003;49075;53.988;27.678;2022-11-24T23:09:51;29.4;29.2;22.4
62981;PMS5003;49075;53.988;27.678;2022-11-24T23:14:43;34;33.8;24.8
62981;PMS5003;49075;53.988;27.678;2022-11-24T23:19:29;31.2;30;20.6
62981;PMS5003;49075;53.988;27.678;2022-11-24T23:24:19;32.3;31.8;23.8
62981;PMS5003;49075;53.988;27.678;2022-11-24T23:29:49;31;31;21
62981;PMS5003;49075;53.988;27.678;2022-11-24T23:34:51;28.2;28;21.2
62981;PMS5003;49075;53.988;27.678;2022-11-24T23:39:31;31;30.3;22.5
62981;PMS5003;49075;53.988;27.678;2022-11-24T23:44:51;29.2;28.6;21.6
62981;PMS5003;49075;53.988;27.678;2022-11-24T23:49:51;29;28.8;20.4
62981;PMS5003;49075;53.988;27.678;2022-11-24T23:54:51;30.2;29;22
62981;PMS5003;49075;53.988;27.678;2022-11-24T23:59:27;33.4;32;22.8
